Latest Weather Observations for PORTABLE RFSNSW51

IDN60801

Issued at 5:13 pm EDT Saturday 5 December 2020 (issued every 10 minutes, with the page automatically refreshed every 10 minutes)

About weather observations | Map of weather stations | Latest weather observations for NSW | Other Formats
Station Details ID: 250098 Name: PORTABLE RFSNSW51 Lat: -35.49 Lon: 146.97 Height: 228.0 m

Portable automatic weather stations (PAWS) are operated by other organisations, such as Fire and Emergency Services, and are included here by agreement. Portable stations may be deployed to a location for a short period and their location may be subject to change without notice. Wind observations from these stations are provided from heights of either three (3) or ten (10) metres above ground level (AGL).

Data from the previous 72 hours. | See also: Recent months for locations in New South Wales
Date/Time
EDT
Temp
°C
App
Temp
°C
Dew
Point
°C
Rel
Hum
%
Delta-T
°C
Wind Press
QNH
hPa
Press
MSL
hPa
Rain since
9am
mm
Dir  Spd
km/h
Gust
km/h
Spd
kts
Gust
kts
05/05:00pm 19.2 19.3 18.3 94 0.6 W 15 19 8 10 - - 4.2
05/04:50pm 19.5 19.1 18.1 92 0.9 W 17 22 9 12 - - 3.2
05/04:40pm 19.8 20.2 18.2 90 1.0 W 13 17 7 9 - - 2.8
05/04:30pm 20.1 19.6 17.9 87 1.4 W 17 20 9 11 - - 2.2
05/04:20pm 20.6 18.3 17.6 83 1.9 WNW 26 33 14 18 - - 1.6
05/04:10pm 21.5 18.5 16.8 74 2.9 WNW 28 35 15 19 - - 1.2
05/04:00pm 22.5 20.0 16.2 67 3.9 WNW 24 28 13 15 - - 0.8
05/03:50pm 23.2 21.6 16.4 65 4.2 WNW 20 24 11 13 - - 0.6
05/03:40pm 23.8 22.2 15.1 58 5.3 W 17 19 9 10 - - 0.6
05/03:30pm 25.0 22.6 14.3 51 6.4 WNW 20 32 11 17 - - 0.4
05/03:20pm 29.4 24.9 13.7 38 9.5 NNW 30 48 16 26 - - 0.2
05/03:10pm 31.0 26.9 7.7 23 12.9 NNW 19 28 10 15 - - 0.2
05/03:00pm 31.1 25.8 4.8 19 13.9 NNE 22 28 12 15 - - 0.2
05/02:50pm 31.1 25.9 5.4 20 13.7 NNE 22 26 12 14 - - 0.2
05/02:40pm 30.8 25.9 4.9 19 13.7 N 20 24 11 13 - - 0.2
05/02:30pm 29.5 24.3 5.7 22 12.6 N 22 28 12 15 - - 0.2
05/02:20pm 27.7 22.7 7.9 28 10.8 N 24 30 13 16 - - 0.2
05/02:10pm 31.4 25.1 5.8 20 13.7 NNE 28 35 15 19 - - 0.0
05/02:00pm 32.1 25.3 3.2 16 14.9 N 28 33 15 18 - - 0.0
05/01:50pm 32.1 26.1 3.2 16 14.9 N 24 33 13 18 - - 0.0
05/01:40pm 31.8 24.6 2.9 16 14.8 N 30 35 16 19 - - 0.0
05/01:30pm 32.0 26.0 3.3 16 14.8 N 24 30 13 16 - - 0.0
05/01:20pm 32.3 25.4 2.7 15 15.2 N 28 33 15 18 - - 0.0
05/01:10pm 32.2 24.9 2.4 15 15.2 N 30 35 16 19 - - 0.0
05/01:00pm 32.9 25.8 1.4 13 15.9 N 28 32 15 17 - - 0.0
05/12:50pm 32.2 24.7 1.1 13 15.5 N 30 37 16 20 - - 0.0
05/12:40pm 32.2 25.0 0.9 13 15.6 NNE 28 32 15 17 - - 0.0
05/12:30pm 32.3 24.8 1.1 13 15.6 NNE 30 35 16 19 - - 0.0
05/12:20pm 32.0 25.4 2.0 15 15.2 N 26 32 14 17 - - 0.0
05/12:10pm 32.6 25.9 1.7 14 15.6 N 26 32 14 17 - - 0.0
05/12:00pm 33.4 27.1 1.6 13 16.1 N 24 33 13 18 - - 0.0
05/11:50am 33.0 27.5 2.1 14 15.8 NNE 20 26 11 14 - - 0.0
05/11:40am 31.3 25.8 2.1 15 14.7 NNE 20 30 11 16 - - 0.0
05/11:30am 30.8 24.8 1.2 15 14.7 NNE 22 26 12 14 - - 0.0
05/11:20am 30.7 25.0 0.3 14 14.8 NNE 20 26 11 14 - - 0.0
05/11:10am 30.8 24.6 0.0 14 14.9 NNE 22 28 12 15 - - 0.0
05/11:00am 30.4 24.6 -0.1 14 14.7 NNE 20 26 11 14 - - 0.0
05/10:50am 30.8 25.1 0.4 14 14.9 NE 20 28 11 15 - - 0.0
05/10:40am 31.2 25.1 0.4 14 15.1 NE 22 28 12 15 - - 0.0
05/10:30am 31.0 25.3 -0.7 13 15.2 NNE 19 22 10 12 - - 0.0
05/10:20am 30.3 25.6 0.7 15 14.5 NNE 15 19 8 10 - - 0.0
05/10:10am 29.5 24.9 1.7 16 13.8 NNE 15 20 8 11 - - 0.0
05/10:00am 29.4 24.5 1.9 17 13.7 NE 17 20 9 11 - - 0.0
05/09:50am 28.1 22.8 1.8 18 12.9 NNE 19 20 10 11 - - 0.0
05/09:40am 27.9 23.1 2.8 20 12.5 NE 17 20 9 11 - - 0.0
05/09:30am 27.7 23.0 3.1 20 12.3 NNE 17 19 9 10 - - 0.0
05/09:20am 27.7 22.9 2.4 19 12.5 NNE 17 20 9 11 - - 0.0
05/09:10am 26.9 22.1 2.4 20 12.1 NNE 17 19 9 10 - - 0.0
05/09:00am 26.4 22.0 2.9 22 11.6 NE 15 19 8 10 - - 0.0
05/08:50am 25.4 20.6 2.7 23 11.1 NE 17 19 9 10 - - 0.0
05/08:40am 25.3 20.9 2.8 23 11.0 NE 15 17 8 9 - - 0.0
05/08:30am 24.9 20.4 2.4 23 10.9 NE 15 17 8 9 - - 0.0
05/08:20am 24.8 20.6 1.8 22 11.0 NE 13 17 7 9 - - 0.0
05/08:10am 23.4 18.9 1.9 24 10.2 NE 15 17 8 9 - - 0.0
05/08:00am 23.4 18.8 1.5 23 10.4 NE 15 17 8 9 - - 0.0
05/07:50am 22.5 17.5 1.1 24 10.0 NE 17 17 9 9 - - 0.0
05/07:40am 22.0 18.4 0.5 24 9.9 ENE 9 15 5 8 - - 0.0
05/07:30am 20.8 17.9 1.2 27 9.0 ENE 6 6 3 3 - - 0.0
05/07:20am 19.3 16.7 0.8 29 8.4 NE 4 6 2 3 - - 0.0
05/07:10am 18.0 15.3 0.6 31 7.7 NNE 4 6 2 3 - - 0.0
05/07:00am 17.3 14.5 -0.3 30 7.6 NE 4 6 2 3 - - 0.0
05/06:50am 15.2 12.3 1.4 39 6.1 ENE 6 6 3 3 - - 0.0
05/06:40am 13.1 10.6 1.8 46 4.9 ESE 4 4 2 2 - - 0.0
05/06:30am 11.4 8.9 1.5 50 4.2 SE 4 4 2 2 - - 0.0
05/06:20am 10.9 8.7 1.2 51 4.1 SE 2 4 1 2 - - 0.0
05/06:10am 10.4 8.3 -0.5 47 4.4 CALM 0 2 0 1 - - 0.0
05/06:00am 9.7 7.7 0.0 51 3.9 CALM 0 2 0 1 - - 0.0
05/05:50am 9.5 7.1 -0.5 49 4.0 ENE 2 4 1 2 - - 0.0
05/05:40am 9.0 6.6 -0.1 53 3.7 ENE 2 4 1 2 - - 0.0
05/05:30am 8.8 6.1 0.6 56 3.3 ESE 4 4 2 2 - - 0.0
05/05:20am 8.6 6.0 0.7 57 3.2 ESE 4 6 2 3 - - 0.0
05/05:10am 9.3 7.1 1.2 57 3.4 SE 2 2 1 1 - - 0.0
05/05:00am 9.5 7.3 0.9 55 3.6 SW 2 4 1 2 - - 0.0
05/04:50am 9.8 7.2 1.2 55 3.6 SSW 4 4 2 2 - - 0.0
05/04:40am 10.1 7.5 1.1 53 3.8 SW 4 6 2 3 - - 0.0
05/04:30am 10.9 8.2 0.3 48 4.4 SW 4 6 2 3 - - 0.0
05/04:20am 11.2 8.8 -0.6 44 4.8 SW 2 2 1 1 - - 0.0
05/04:10am 11.5 9.4 -1.1 41 5.1 CALM 0 0 0 0 - - 0.0
05/04:00am 11.1 8.5 -1.5 41 5.0 ESE 2 4 1 2 - - 0.0
05/03:50am 10.9 8.0 -0.8 44 4.7 ESE 4 6 2 3 - - 0.0
05/03:40am 11.0 8.1 -1.0 43 4.8 ESE 4 4 2 2 - - 0.0
05/03:30am 11.0 8.1 -1.3 42 4.9 SE 4 4 2 2 - - 0.0
05/03:20am 11.5 8.5 -1.5 40 5.2 S 4 4 2 2 - - 0.0
05/03:10am 11.6 9.2 -0.6 43 5.0 S 2 4 1 2 - - 0.0
05/03:00am 11.4 9.0 -0.5 44 4.9 SSW 2 2 1 1 - - 0.0
05/02:50am 11.5 9.1 -0.1 44 4.8 ESE 2 2 1 1 - - 0.0
05/02:40am 12.7 10.3 -0.5 40 5.5 SW 2 2 1 1 - - 0.0
05/02:30am 13.4 10.4 -2.1 34 6.2 SSW 4 4 2 2 - - 0.0
05/02:20am 13.6 10.8 -0.7 37 5.9 S 4 4 2 2 - - 0.0
05/02:10am 14.1 11.1 -1.9 33 6.5 S 4 6 2 3 - - 0.0
05/02:00am 14.1 10.9 -3.6 29 6.9 S 4 4 2 2 - - 0.0
05/01:50am 13.1 10.1 -2.1 35 6.1 SSE 4 4 2 2 - - 0.0
05/01:40am 12.6 9.7 -1.0 39 5.6 SE 4 4 2 2 - - 0.0
05/01:30am 13.0 10.6 -0.4 39 5.6 ESE 2 4 1 2 - - 0.0
05/01:20am 13.6 11.2 -0.4 38 5.9 S 2 6 1 3 - - 0.0
05/01:10am 14.8 11.1 -3.2 28 7.2 SSE 7 7 4 4 - - 0.0
05/01:00am 14.3 11.0 -1.1 34 6.4 SSE 6 7 3 4 - - 0.0
05/12:50am 13.9 10.6 -1.5 34 6.3 ESE 6 7 3 4 - - 0.0
05/12:40am 13.7 10.3 -0.5 37 5.9 SE 7 7 4 4 - - 0.0
05/12:30am 14.5 11.2 -1.4 33 6.6 SSE 6 7 3 4 - - 0.0
05/12:20am 14.8 11.5 -1.5 32 6.7 SSE 6 6 3 3 - - 0.0
05/12:10am 14.3 11.3 -1.5 33 6.5 SE 4 4 2 2 - - 0.0
05/12:00am 14.2 11.7 -0.9 35 6.3 ENE 2 2 1 1 - - 0.0
 
Date/Time
EDT
Temp
°C
App
Temp
°C
Dew
Point
°C
Rel
Hum
%
Delta-T
°C
Wind Press
QNH
hPa
Press
MSL
hPa
Rain since
9am
mm
Dir  Spd
km/h
Gust
km/h
Spd
kts
Gust
kts
04/11:50pm 14.3 11.9 -0.4 36 6.2 ESE 2 2 1 1 - - 0.0
04/11:40pm 14.1 11.3 -0.5 36 6.1 S 4 6 2 3 - - 0.0
04/11:30pm 15.9 12.6 -1.2 31 7.2 SSW 6 6 3 3 - - 0.0
04/11:20pm 16.4 13.0 -2.2 28 7.7 SSW 6 6 3 3 - - 0.0
04/11:10pm 16.8 13.8 -2.0 27 7.8 S 4 6 2 3 - - 0.0
04/11:00pm 16.1 13.0 -2.3 28 7.6 SSE 4 6 2 3 - - 0.0
04/10:50pm 16.8 13.8 -1.8 28 7.8 ESE 4 4 2 2 - - 0.0
04/10:40pm 17.1 13.6 -2.5 26 8.1 ENE 6 7 3 4 - - 0.0
04/10:30pm 18.0 15.1 -1.0 27 8.2 SE 4 6 2 3 - - 0.0
04/10:20pm 20.4 17.0 -1.9 22 9.6 SSW 6 7 3 4 - - 0.0
04/10:10pm 20.4 16.7 -2.9 20 9.9 S 7 7 4 4 - - 0.0
04/10:00pm 20.3 16.2 -3.0 20 9.8 S 9 9 5 5 - - 0.0
04/09:50pm 20.0 15.9 -2.7 21 9.6 SSW 9 9 5 5 - - 0.0
04/09:40pm 20.8 17.2 -2.4 21 10.0 SSW 7 9 4 5 - - 0.0
04/09:30pm 20.6 16.9 -3.0 20 10.0 SSW 7 9 4 5 - - 0.0
04/09:20pm 20.8 16.7 -2.9 20 10.1 SSW 9 11 5 6 - - 0.0
04/09:10pm 21.5 17.8 -3.1 19 10.5 SSW 7 9 4 5 - - 0.0
04/09:00pm 21.3 17.5 -3.4 19 10.4 SSW 7 9 4 5 - - 0.0
04/08:50pm 21.5 17.4 -3.1 19 10.5 SSW 9 9 5 5 - - 0.0
04/08:40pm 21.5 17.3 -3.5 18 10.6 SSW 9 9 5 5 - - 0.0
04/08:30pm 22.3 18.1 -3.6 17 11.0 SSW 9 11 5 6 - - 0.0
04/08:20pm 22.9 18.7 -3.8 16 11.4 SW 9 11 5 6 - - 0.0
04/08:10pm 24.0 19.8 -3.8 15 11.9 SW 9 11 5 6 - - 0.0
04/08:00pm 25.4 21.2 -3.9 14 12.7 SW 9 11 5 6 - - 0.0
04/07:50pm 27.0 22.7 -4.6 12 13.7 SW 9 11 5 6 - - 0.0
04/07:40pm 28.1 23.7 -5.5 10 14.5 SW 9 11 5 6 - - 0.0
04/07:30pm 28.7 23.5 -5.8 10 14.9 WSW 13 15 7 8 - - 0.0
04/07:20pm 29.2 24.0 -5.9 10 15.2 SW 13 17 7 9 - - 0.0
04/07:10pm 29.6 24.4 -6.2 9 15.5 SW 13 15 7 8 - - 0.0
04/07:00pm 29.9 24.2 -7.0 8 15.8 SW 15 19 8 10 - - 0.0
04/06:50pm 30.3 25.1 -6.4 9 15.9 WSW 13 17 7 9 - - 0.0
04/06:40pm 30.5 24.8 -7.3 8 16.1 SW 15 20 8 11 - - 0.0
04/06:30pm 30.8 25.0 -8.1 7 16.4 SW 15 22 8 12 - - 0.0
04/06:20pm 30.9 24.4 -8.2 7 16.5 SW 19 20 10 11 - - 0.0
04/06:10pm 31.2 24.7 -8.5 7 16.7 WSW 19 22 10 12 - - 0.0
04/06:00pm 31.4 25.7 -8.0 7 16.8 SW 15 20 8 11 - - 0.0
04/05:50pm 31.7 25.8 -9.5 6 17.1 WSW 15 22 8 12 - - 0.0
04/05:40pm 31.6 25.0 -9.2 6 17.0 WSW 19 24 10 13 - - 0.0
04/05:30pm 32.1 25.5 -9.6 6 17.4 WSW 19 24 10 13 - - 0.0
04/05:20pm 31.9 25.3 -9.1 6 17.2 WSW 19 22 10 12 - - 0.0
04/05:10pm 31.9 24.8 -8.6 7 17.1 WSW 22 32 12 17 - - 0.0
04/05:00pm 32.2 25.4 -9.9 6 17.5 WSW 20 24 11 13 - - 0.0
04/04:50pm 32.5 25.7 -9.8 6 17.6 WSW 20 22 11 12 - - 0.0
04/04:40pm 32.5 26.0 -8.3 7 17.4 W 19 24 10 13 - - 0.0
04/04:30pm 32.7 26.1 -9.0 6 17.6 W 19 24 10 13 - - 0.0
04/04:20pm 32.8 25.6 -10.1 6 17.8 WSW 22 30 12 16 - - 0.0
04/04:10pm 32.5 25.3 -9.6 6 17.6 WSW 22 33 12 18 - - 0.0
04/04:00pm 32.8 25.6 -9.1 6 17.7 W 22 33 12 18 - - 0.0
04/03:50pm 32.8 26.1 -8.6 6 17.6 W 20 24 11 13 - - 0.0
04/03:40pm 33.0 26.1 -10.0 6 17.9 WSW 20 24 11 13 - - 0.0
04/03:30pm 32.6 25.4 -9.7 6 17.7 WSW 22 28 12 15 - - 0.0
04/03:20pm 32.4 25.6 -9.7 6 17.5 W 20 28 11 15 - - 0.0
04/03:10pm 32.5 25.2 -10.7 5 17.7 W 22 28 12 15 - - 0.0
04/03:00pm 32.9 25.4 -8.9 6 17.7 WSW 24 30 13 16 - - 0.0
04/02:50pm 33.0 25.5 -8.4 6 17.7 WSW 24 28 13 15 - - 0.0
04/02:40pm 32.6 24.7 -8.7 6 17.5 WSW 26 32 14 17 - - 0.0
04/02:30pm 32.7 24.8 -9.4 6 17.7 W 26 32 14 17 - - 0.0
04/02:20pm 32.8 25.2 -9.6 6 17.8 WSW 24 30 13 16 - - 0.0
04/02:10pm 32.5 24.2 -8.7 6 17.5 W 28 37 15 20 - - 0.0
04/02:00pm 32.5 24.2 -9.6 6 17.6 WSW 28 37 15 20 - - 0.0
04/01:50pm 32.6 25.2 -7.7 7 17.4 W 24 33 13 18 - - 0.0
04/01:40pm 32.6 25.7 -6.3 8 17.2 W 22 32 12 17 - - 0.0
04/01:30pm 32.3 24.6 -6.4 8 17.0 WSW 26 30 14 16 - - 0.0
04/01:20pm 31.9 24.0 -5.2 9 16.6 W 28 35 15 19 - - 0.0
04/01:10pm 31.8 24.7 -4.6 9 16.4 W 24 32 13 17 - - 0.0
04/01:00pm 32.0 24.9 -4.2 9 16.5 W 24 30 13 16 - - 0.0
04/12:50pm 31.9 25.6 -3.6 10 16.3 W 20 30 11 16 - - 0.0
04/12:40pm 31.8 24.8 -3.2 10 16.2 WSW 24 30 13 16 - - 0.0
04/12:30pm 31.4 24.7 -4.3 9 16.2 W 22 28 12 15 - - 0.0
04/12:20pm 30.6 22.6 -2.6 11 15.4 W 30 35 16 19 - - 0.0
04/12:10pm 31.2 23.4 -3.9 10 16.0 W 28 33 15 18 - - 0.0
04/12:00pm 30.8 23.1 -3.0 11 15.6 W 28 32 15 17 - - 0.0
04/11:50am 31.0 24.1 -3.0 11 15.7 W 24 32 13 17 - - 0.0
04/11:40am 30.6 23.4 -2.4 11 15.3 W 26 33 14 18 - - 0.0
04/11:30am 30.6 22.9 -2.9 11 15.4 WNW 28 35 15 19 - - 0.0
04/11:20am 30.4 23.5 -2.4 12 15.2 W 24 32 13 17 - - 0.0
04/11:10am 30.2 23.8 -1.9 12 15.0 W 22 32 12 17 - - 0.0
04/11:00am 30.5 23.6 -3.0 11 15.4 WNW 24 32 13 17 - - 0.0
04/10:50am 30.3 24.2 -2.2 12 15.1 WNW 20 26 11 14 - - 0.0
04/10:40am 30.0 23.2 -2.0 12 14.9 WNW 24 28 13 15 - - 0.0
04/10:30am 29.8 23.3 -2.5 12 14.9 WNW 22 30 12 16 - - 0.0
04/10:20am 29.4 22.9 -2.5 12 14.7 WNW 22 28 12 15 - - 0.0
04/10:10am 29.3 23.3 -1.9 13 14.5 NW 20 24 11 13 - - 0.0
04/10:00am 28.7 23.2 -1.9 13 14.1 NNW 17 20 9 11 - - 0.0
04/09:50am 28.3 23.2 -1.9 14 13.9 NW 15 19 8 10 - - 0.0
04/09:40am 27.8 23.2 -1.4 15 13.5 NNW 13 19 7 10 - - 0.0
04/09:30am 27.3 23.1 -1.2 15 13.2 NNW 11 15 6 8 - - 0.0
04/09:20am 26.3 21.7 -1.3 16 12.7 NNW 13 17 7 9 - - 0.0
04/09:10am 25.3 20.3 -1.2 17 12.1 N 15 17 8 9 - - 0.0
04/09:00am 24.5 19.6 -0.6 19 11.5 N 15 17 8 9 - - 0.0
04/08:50am 23.9 19.3 -0.9 19 11.2 N 13 15 7 8 - - 0.0
04/08:40am 23.1 18.9 -1.0 20 10.8 NNW 11 13 6 7 - - 0.0
04/08:30am 22.5 18.7 -0.5 21 10.4 N 9 13 5 7 - - 0.0
04/08:20am 21.8 17.7 -0.3 23 10.0 N 11 15 6 8 - - 0.0
04/08:10am 20.9 16.8 -0.4 24 9.5 N 11 13 6 7 - - 0.0
04/08:00am 19.8 15.7 0.0 26 8.8 N 11 15 6 8 - - 0.0
04/07:50am 19.0 15.3 0.1 28 8.4 N 9 11 5 6 - - 0.0
04/07:40am 18.3 14.6 -0.1 29 8.1 N 9 11 5 6 - - 0.0
04/07:30am 17.7 14.4 0.4 31 7.6 N 7 9 4 5 - - 0.0
04/07:20am 16.6 13.3 0.4 33 7.1 N 7 9 4 5 - - 0.0
04/07:10am 15.6 13.0 1.0 37 6.4 NNE 4 4 2 2 - - 0.0
04/07:00am 14.1 12.2 2.7 46 5.1 NE 2 6 1 3 - - 0.0
04/06:50am 12.5 10.6 2.8 51 4.3 E 2 4 1 2 - - 0.0
04/06:40am 11.4 9.5 2.9 56 3.8 ENE 2 4 1 2 - - 0.0
04/06:30am 10.4 8.5 2.6 58 3.4 ENE 2 2 1 1 - - 0.0
04/06:20am 10.1 7.6 1.7 56 3.6 NE 4 6 2 3 - - 0.0
04/06:10am 10.3 7.7 1.0 52 3.9 NNE 4 4 2 2 - - 0.0
04/06:00am 10.2 7.9 0.1 49 4.1 N 2 4 1 2 - - 0.0
04/05:50am 10.3 7.6 0.3 50 4.1 NNW 4 4 2 2 - - 0.0
04/05:40am 9.7 7.4 0.3 52 3.8 WNW 2 2 1 1 - - 0.0
04/05:30am 9.6 7.3 0.4 52 3.8 S 2 2 1 1 - - 0.0
04/05:20am 9.6 7.4 1.0 55 3.6 SE 2 2 1 1 - - 0.0
04/05:10am 10.2 8.2 2.5 59 3.3 ENE 2 2 1 1 - - 0.0
04/05:00am 10.4 8.4 -0.3 47 4.3 CALM 0 2 0 1 - - 0.0
04/04:50am 11.0 8.6 -0.5 45 4.7 SSW 2 2 1 1 - - 0.0
04/04:40am 10.8 8.0 -0.6 45 4.6 SSW 4 4 2 2 - - 0.0
04/04:30am 11.5 9.1 -0.5 43 4.9 SSW 2 4 1 2 - - 0.0
04/04:20am 11.5 9.1 -0.6 43 4.9 SSW 2 4 1 2 - - 0.0
04/04:10am 11.4 8.6 -0.5 44 4.9 SSW 4 4 2 2 - - 0.0
04/04:00am 11.2 8.7 -0.8 43 4.9 SSW 2 4 1 2 - - 0.0
04/03:50am 10.9 8.5 -0.4 45 4.6 S 2 2 1 1 - - 0.0
04/03:40am 10.6 8.6 0.2 48 4.3 CALM 0 2 0 1 - - 0.0
04/03:30am 10.4 8.6 0.9 52 4.0 CALM 0 2 0 1 - - 0.0
04/03:20am 11.3 9.0 0.7 48 4.4 NNE 2 2 1 1 - - 0.0
04/03:10am 11.2 8.9 0.1 46 4.6 NNW 2 4 1 2 - - 0.0
04/03:00am 11.3 9.1 1.1 49 4.3 WSW 2 2 1 1 - - 0.0
04/02:50am 11.4 9.2 0.9 48 4.4 WSW 2 2 1 1 - - 0.0
04/02:40am 12.2 10.0 0.9 46 4.8 W 2 2 1 1 - - 0.0
04/02:30am 12.1 9.7 -0.3 42 5.1 NNE 2 2 1 1 - - 0.0
04/02:20am 12.2 9.9 0.2 43 5.0 E 2 2 1 1 - - 0.0
04/02:10am 12.2 9.8 -0.5 41 5.2 ESE 2 2 1 1 - - 0.0
04/02:00am 12.2 9.8 0.0 43 5.1 E 2 2 1 1 - - 0.0
04/01:50am 12.3 9.9 0.0 43 5.1 NNE 2 2 1 1 - - 0.0
04/01:40am 12.7 10.3 -0.1 41 5.3 ENE 2 4 1 2 - - 0.0
04/01:30am 13.0 10.2 -0.2 40 5.5 E 4 4 2 2 - - 0.0
04/01:20am 13.1 10.7 0.0 40 5.5 ESE 2 2 1 1 - - 0.0
04/01:10am 13.4 10.7 0.4 41 5.5 S 4 4 2 2 - - 0.0
04/01:00am 13.6 10.8 -0.5 38 5.9 S 4 4 2 2 - - 0.0
04/12:50am 14.0 11.2 -0.6 36 6.1 S 4 4 2 2 - - 0.0
04/12:40am 14.0 10.8 -0.7 36 6.1 SSE 6 6 3 3 - - 0.0
04/12:30am 14.3 11.1 -0.6 36 6.2 S 6 6 3 3 - - 0.0
04/12:20am 14.1 10.8 -1.4 34 6.4 S 6 7 3 4 - - 0.0
04/12:10am 14.4 11.6 -0.5 36 6.3 S 4 6 2 3 - - 0.0
04/12:00am 15.0 12.6 -0.5 34 6.6 SSE 2 4 1 2 - - 0.0
 
Date/Time
EDT
Temp
°C
App
Temp
°C
Dew
Point
°C
Rel
Hum
%
Delta-T
°C
Wind Press
QNH
hPa
Press
MSL
hPa
Rain since
9am
mm
Dir  Spd
km/h
Gust
km/h
Spd
kts
Gust
kts
03/11:50pm 17.6 14.7 1.6 34 7.2 SSW 6 7 3 4 - - 0.0
03/11:40pm 17.7 14.0 -2.9 24 8.5 SSW 7 7 4 4 - - 0.0
03/11:30pm 16.8 13.4 -2.0 27 7.8 SSW 6 6 3 3 - - 0.0
03/11:20pm 16.4 13.3 -2.5 27 7.8 SW 4 4 2 2 - - 0.0
03/11:10pm 15.2 12.6 -2.0 30 7.1 WSW 2 6 1 3 - - 0.0
03/11:00pm 16.7 13.8 -0.9 30 7.5 S 4 6 2 3 - - 0.0
03/10:50pm 18.4 15.3 -2.5 24 8.8 SSW 4 6 2 3 - - 0.0
03/10:40pm 18.6 15.2 -2.4 24 8.8 SW 6 7 3 4 - - 0.0
03/10:30pm 18.9 15.8 -2.9 22 9.1 SSW 4 6 2 3 - - 0.0
03/10:20pm 18.7 15.2 -2.7 23 9.0 S 6 6 3 3 - - 0.0
03/10:10pm 18.9 15.4 -2.9 22 9.1 S 6 7 3 4 - - 0.0
03/10:00pm 17.9 14.3 -2.0 26 8.4 SSW 7 7 4 4 - - 0.0
03/09:50pm 18.2 14.7 -1.4 26 8.4 SSW 7 9 4 5 - - 0.0
03/09:40pm 19.7 16.2 -1.6 23 9.2 SSW 7 9 4 5 - - 0.0
03/09:30pm 20.5 16.4 -3.0 20 9.9 SSW 9 9 5 5 - - 0.0
03/09:20pm 20.4 16.7 -3.2 20 9.9 S 7 7 4 4 - - 0.0
03/09:10pm 20.4 16.7 -3.1 20 9.9 S 7 9 4 5 - - 0.0
03/09:00pm 20.5 16.4 -3.2 20 10.0 S 9 9 5 5 - - 0.0
03/08:50pm 20.4 16.3 -3.1 20 9.9 SSW 9 9 5 5 - - 0.0
03/08:40pm 20.6 17.0 -2.0 22 9.8 SSW 7 9 4 5 - - 0.0
03/08:30pm 21.6 17.6 -2.5 19 10.4 SSW 9 13 5 7 - - 0.0
03/08:20pm 22.2 17.4 -2.9 18 10.8 SSW 13 13 7 7 - - 0.0
03/08:10pm 23.1 18.7 -2.4 18 11.2 SW 11 11 6 6 - - 0.0
03/08:00pm 24.3 19.9 -2.8 16 11.9 SW 11 13 6 7 - - 0.0
03/07:50pm 25.4 20.9 -3.1 15 12.6 SW 11 13 6 7 - - 0.0
03/07:40pm 26.4 21.9 -3.3 14 13.1 SW 11 15 6 8 - - 0.0
03/07:30pm 27.1 22.1 -4.0 12 13.7 SW 13 13 7 7 - - 0.0
03/07:20pm 27.6 22.6 -3.9 12 13.9 SW 13 17 7 9 - - 0.0
03/07:10pm 28.0 22.7 -4.0 12 14.2 SW 15 19 8 10 - - 0.0
03/07:00pm 28.5 23.1 -4.7 11 14.6 SW 15 19 8 10 - - 0.0
03/06:50pm 28.9 23.9 -4.5 11 14.8 SW 13 20 7 11 - - 0.0
03/06:40pm 29.1 23.7 -4.1 11 14.8 SW 15 19 8 10 - - 0.0
03/06:30pm 29.5 24.1 -4.4 11 15.1 SW 15 19 8 10 - - 0.0
03/06:20pm 29.6 25.0 -4.4 10 15.2 SW 11 19 6 10 - - 0.0
03/06:10pm 29.5 23.2 -3.8 11 15.0 SW 20 24 11 13 - - 0.0
03/06:00pm 29.9 24.2 -3.7 11 15.2 SW 17 20 9 11 - - 0.0
03/05:50pm 30.0 25.6 -2.6 12 15.0 W 11 17 6 9 - - 0.0
03/05:40pm 30.0 24.4 -3.3 11 15.2 W 17 20 9 11 - - 0.0
03/05:30pm 30.1 25.4 -1.8 12 14.9 SSW 13 19 7 10 - - 0.0
03/05:20pm 30.4 25.4 -1.5 12 15.0 SSW 15 19 8 10 - - 0.0
03/05:10pm 30.7 25.9 -2.4 11 15.4 SSW 13 17 7 9 - - 0.0
03/05:00pm 30.6 25.8 -2.4 11 15.3 WSW 13 17 7 9 - - 0.0
03/04:50pm 30.3 26.3 -2.3 12 15.2 W 9 13 5 7 - - 0.0
03/04:40pm 30.1 24.1 -3.2 11 15.2 WSW 19 22 10 12 - - 0.0
03/04:30pm 30.7 25.8 -3.0 11 15.5 SW 13 20 7 11 - - 0.0
03/04:20pm 30.2 25.8 -2.5 12 15.1 W 11 15 6 8 - - 0.0
03/04:10pm 30.0 25.2 -2.5 12 15.0 S 13 19 7 10 - - 0.0
03/04:00pm 30.3 25.8 -3.0 11 15.3 SW 11 20 6 11 - - 0.0
03/03:50pm 30.2 25.8 -2.1 12 15.1 SSW 11 20 6 11 - - 0.0
03/03:40pm 29.7 24.9 -2.2 12 14.8 SSW 13 20 7 11 - - 0.0
03/03:30pm 29.9 24.7 -2.8 12 15.0 SSW 15 17 8 9 - - 0.0
03/03:20pm 29.8 23.9 -2.3 12 14.9 SW 19 22 10 12 - - 0.0
03/03:10pm 29.5 25.2 -1.5 13 14.5 SSW 11 19 6 10 - - 0.0
03/03:00pm 29.6 24.4 -2.6 12 14.8 SW 15 26 8 14 - - 0.0
03/02:50pm 29.5 25.1 -2.2 12 14.7 SW 11 19 6 10 - - 0.0
03/02:40pm 29.3 24.6 -2.0 13 14.5 WSW 13 22 7 12 - - 0.0
03/02:30pm 29.7 24.8 -3.4 11 15.0 W 13 17 7 9 - - 0.0
03/02:20pm 29.0 25.0 -2.4 13 14.4 SSW 9 17 5 9 - - 0.0
03/02:10pm 28.4 23.4 -1.5 14 13.9 SW 15 19 8 10 - - 0.0
03/02:00pm 28.7 24.4 -1.4 14 14.0 W 11 15 6 8 - - 0.0
03/01:50pm 28.7 24.1 -1.4 14 14.0 SW 13 15 7 8 - - 0.0
03/01:40pm 28.3 24.6 -0.3 15 13.6 SSE 9 13 5 7 - - 0.0
03/01:30pm 27.5 24.2 -1.3 15 13.3 S 6 13 3 7 - - 0.0
03/01:20pm 27.1 22.5 -0.9 16 13.0 SSW 13 19 7 10 - - 0.0
03/01:10pm 26.7 23.0 0.1 17 12.6 S 9 17 5 9 - - 0.0
03/01:00pm 26.8 22.3 -0.4 17 12.7 SW 13 20 7 11 - - 0.0
03/12:50pm 26.1 21.5 -0.8 17 12.4 S 13 20 7 11 - - 0.0
03/12:40pm 26.3 21.4 -0.3 17 12.4 SSW 15 19 8 10 - - 0.0
03/12:30pm 26.6 21.7 -0.3 17 12.6 SSW 15 19 8 10 - - 0.0
03/12:20pm 27.1 22.7 0.3 17 12.7 SW 13 19 7 10 - - 0.0
03/12:10pm 26.2 22.5 0.2 18 12.3 SSW 9 15 5 8 - - 0.0
03/12:00pm 25.2 20.7 -0.4 18 11.8 SW 13 19 7 10 - - 0.0
03/11:50am 25.3 21.3 0.6 20 11.6 W 11 17 6 9 - - 0.0
03/11:40am 25.9 21.5 0.1 18 12.1 W 13 17 7 9 - - 0.0
03/11:30am 25.7 21.4 0.9 19 11.8 WSW 13 19 7 10 - - 0.0
03/11:20am 25.3 21.4 0.9 20 11.6 SW 11 19 6 10 - - 0.0
03/11:10am 25.0 21.2 1.8 22 11.2 SW 11 17 6 9 - - 0.0
03/11:00am 24.5 20.3 1.7 22 10.9 WSW 13 15 7 8 - - 0.0
03/10:50am 24.8 21.6 3.1 24 10.7 WNW 9 13 5 7 - - 0.0
03/10:40am 24.7 21.2 3.4 25 10.5 SSW 11 15 6 8 - - 0.0
03/10:30am 23.7 20.1 3.2 26 10.0 WSW 11 15 6 8 - - 0.0
03/10:20am 22.9 20.5 5.2 31 8.9 SW 7 9 4 5 - - 0.0
03/10:10am 22.8 20.2 6.1 34 8.6 SW 9 15 5 8 - - 0.0
03/10:00am 22.7 20.2 6.4 35 8.4 SW 9 15 5 8 - - 0.0
03/09:50am 22.5 20.8 7.5 38 7.9 SSW 6 9 3 5 - - 0.0
03/09:40am 21.8 20.6 8.0 41 7.3 W 4 6 2 3 - - 0.0
03/09:30am 21.5 20.3 8.1 42 7.1 WNW 4 6 2 3 - - 0.0
03/09:20am 21.3 19.4 7.7 41 7.1 NW 7 11 4 6 - - 0.0
03/09:10am 21.3 19.7 8.8 44 6.7 N 7 7 4 4 - - 0.0
03/09:00am 20.7 19.1 10.2 51 5.7 N 9 11 5 6 - - 0.0
03/08:50am 20.9 19.3 10.3 50 5.8 NE 9 11 5 6 - - 0.0
03/08:40am 20.0 18.8 10.3 53 5.3 NNE 7 11 4 6 - - 0.0
03/08:30am 19.8 18.7 10.1 53 5.3 NNE 6 9 3 5 - - 0.0
03/08:20am 19.3 18.0 10.1 55 5.0 N 7 11 4 6 - - 0.0
03/08:10am 19.0 17.9 9.9 55 4.9 NNE 6 7 3 4 - - 0.0
03/08:00am 18.8 17.7 9.8 56 4.8 NNW 6 7 3 4 - - 0.0
03/07:50am 18.1 17.2 9.2 56 4.7 NNW 4 6 2 3 - - 0.0
03/07:40am 17.3 16.2 8.5 56 4.6 NW 4 6 2 3 - - 0.0
03/07:30am 17.3 16.1 8.1 54 4.7 NW 4 6 2 3 - - 0.0
03/07:20am 17.0 16.2 8.3 56 4.5 W 2 4 1 2 - - 0.0
03/07:10am 15.8 14.8 7.5 58 4.2 SW 2 2 1 1 - - 0.0
03/07:00am 14.3 13.8 7.7 64 3.3 CALM 0 2 0 1 - - 0.0
03/06:50am 13.1 12.5 7.2 67 2.9 CALM 0 2 0 1 - - 0.0
03/06:40am 11.4 10.2 6.5 72 2.3 W 2 2 1 1 - - 0.0
03/06:30am 10.2 8.9 5.8 74 2.1 WSW 2 2 1 1 - - 0.0
03/06:20am 9.6 8.2 5.3 74 2.0 SW 2 2 1 1 - - 0.0
03/06:10am 9.4 8.1 5.9 79 1.6 SW 2 2 1 1 - - 0.0
03/06:00am 10.0 8.6 5.5 73 2.1 NNW 2 2 1 1 - - 0.0
03/05:50am 11.5 9.8 6.1 69 2.6 NNE 4 6 2 3 - - 0.0
03/05:40am 11.7 9.7 7.1 73 2.2 NNE 7 7 4 4 - - 0.0
03/05:30am 11.8 10.0 7.2 73 2.2 NNE 6 7 3 4 - - 0.0
03/05:20am 11.4 10.1 7.5 77 1.9 NE 4 6 2 3 - - 0.0
03/05:10am 11.6 10.1 6.8 72 2.3 NE 4 6 2 3 - - 0.0
03/05:00am 11.6 9.4 6.2 69 2.6 NE 7 7 4 4 - - 0.0
03/04:50am 11.0 8.6 5.3 68 2.6 NE 7 9 4 5 - - 0.0
03/04:40am 9.7 7.3 4.1 68 2.5 ENE 6 7 3 4 - - 0.0
03/04:30am 8.4 6.4 2.3 65 2.6 E 2 4 1 2 - - 0.0
03/04:20am 8.3 6.3 2.2 65 2.6 NE 2 2 1 1 - - 0.0
03/04:10am 7.9 5.8 2.0 66 2.5 ENE 2 2 1 1 - - 0.0
03/04:00am 7.9 5.8 1.6 64 2.6 ESE 2 2 1 1 - - 0.0
03/03:50am 7.2 5.1 1.7 68 2.3 N 2 4 1 2 - - 0.0
03/03:40am 7.5 4.6 1.5 66 2.5 NNE 6 7 3 4 - - 0.0
03/03:30am 8.0 5.0 1.8 65 2.6 NNE 7 13 4 7 - - 0.0
03/03:20am 9.2 7.2 2.3 62 2.9 W 2 4 1 2 - - 0.0
03/03:10am 9.2 7.2 2.1 61 3.0 W 2 4 1 2 - - 0.0
03/03:00am 8.9 7.2 1.9 61 2.9 CALM 0 2 0 1 - - 0.0
03/02:50am 8.4 6.3 2.0 64 2.7 E 2 4 1 2 - - 0.0
03/02:40am 8.4 6.4 2.1 64 2.7 NE 2 4 1 2 - - 0.0
03/02:30am 8.6 6.3 2.6 66 2.6 E 4 4 2 2 - - 0.0
03/02:20am 9.2 6.8 2.3 62 2.9 SSE 4 4 2 2 - - 0.0
03/02:10am 9.9 7.9 2.2 59 3.3 SSW 2 2 1 1 - - 0.0
03/02:00am 9.9 7.9 2.1 58 3.3 W 2 4 1 2 - - 0.0
03/01:50am 10.3 7.9 1.9 56 3.6 S 4 4 2 2 - - 0.0
03/01:40am 11.3 8.9 2.0 53 4.0 S 4 4 2 2 - - 0.0
03/01:30am 11.6 9.2 2.3 53 4.1 S 4 4 2 2 - - 0.0
03/01:20am 12.1 9.3 1.9 49 4.4 S 6 7 3 4 - - 0.0
03/01:10am 12.9 9.9 1.7 46 4.9 S 7 7 4 4 - - 0.0
03/01:00am 12.6 9.6 1.7 47 4.7 S 7 7 4 4 - - 0.0
03/12:50am 12.2 9.3 1.6 48 4.6 SSW 6 7 3 4 - - 0.0
03/12:40am 12.4 10.0 2.1 49 4.5 S 4 6 2 3 - - 0.0
03/12:30am 13.7 10.8 1.5 43 5.3 S 6 6 3 3 - - 0.0
03/12:20am 13.7 10.8 1.6 44 5.3 SSW 6 6 3 3 - - 0.0
03/12:10am 13.9 11.0 1.6 43 5.4 SSW 6 7 3 4 - - 0.0
03/12:00am 14.0 11.2 1.8 43 5.4 SSW 6 6 3 3 - - 0.0
 
Date/Time
EDT
Temp
°C
App
Temp
°C
Dew
Point
°C
Rel
Hum
%
Delta-T
°C
Wind Press
QNH
hPa
Press
MSL
hPa
Rain since
9am
mm
Dir  Spd
km/h
Gust
km/h
Spd
kts
Gust
kts
02/11:50pm 13.9 11.0 1.5 43 5.4 SSW 6 7 3 4 - - 0.0
02/11:40pm 14.0 11.1 1.4 42 5.5 SSW 6 7 3 4 - - 0.0
02/11:30pm 14.6 11.5 1.4 40 5.8 SW 7 7 4 4 - - 0.0
02/11:20pm 14.6 11.5 1.2 40 5.9 SW 7 7 4 4 - - 0.0
02/11:10pm 14.8 11.9 1.2 39 6.0 SW 6 7 3 4 - - 0.0
02/11:00pm 14.9 12.0 1.2 39 6.0 WSW 6 7 3 4 - - 0.0
02/10:50pm 14.9 11.8 1.1 39 6.0 SW 7 7 4 4 - - 0.0
02/10:40pm 14.8 11.7 1.1 39 6.0 SW 7 7 4 4 - - 0.0
02/10:30pm 14.8 11.6 1.0 39 6.0 SW 7 9 4 5 - - 0.0
02/10:20pm 15.3 11.8 1.1 38 6.2 SW 9 9 5 5 - - 0.0
02/10:10pm 15.6 12.1 1.0 37 6.4 SW 9 11 5 6 - - 0.0
02/10:00pm 15.8 11.9 0.9 36 6.5 SW 11 13 6 7 - - 0.0
02/09:50pm 15.6 11.6 0.8 36 6.5 SW 11 11 6 6 - - 0.0
02/09:40pm 15.7 11.7 0.7 36 6.6 SW 11 13 6 7 - - 0.0
02/09:30pm 15.6 11.6 0.7 36 6.5 SW 11 13 6 7 - - 0.0
02/09:20pm 15.7 11.7 0.8 36 6.5 SW 11 11 6 6 - - 0.0
02/09:10pm 15.9 11.9 0.7 35 6.7 SW 11 11 6 6 - - 0.0
02/09:00pm 16.4 12.9 1.0 35 6.8 SW 9 9 5 5 - - 0.0
02/08:50pm 16.8 13.2 0.7 33 7.1 SW 9 11 5 6 - - 0.0
02/08:40pm 17.4 13.4 0.6 32 7.4 SW 11 11 6 6 - - 0.0
02/08:30pm 18.1 14.5 0.5 30 7.8 SW 9 9 5 5 - - 0.0
02/08:20pm 19.1 15.5 0.5 28 8.3 SW 9 11 5 6 - - 0.0
02/08:10pm 20.1 16.1 0.4 26 8.9 SW 11 13 6 7 - - 0.0
02/08:00pm 21.0 17.4 0.4 25 9.4 SW 9 11 5 6 - - 0.0
02/07:50pm 21.9 17.9 0.2 23 9.9 SSW 11 15 6 8 - - 0.0
02/07:40pm 22.5 17.6 -0.3 22 10.3 SW 15 19 8 10 - - 0.0
02/07:30pm 23.1 17.8 -0.4 21 10.7 SW 17 20 9 11 - - 0.0
02/07:20pm 23.7 19.2 -0.5 20 11.0 SW 13 15 7 8 - - 0.0
02/07:10pm 24.0 19.5 -0.6 19 11.2 SW 13 15 7 8 - - 0.0
02/07:00pm 24.2 18.5 -0.8 19 11.4 SW 19 20 10 11 - - 0.0
02/06:50pm 24.7 19.4 -0.6 19 11.6 SSW 17 20 9 11 - - 0.0
02/06:40pm 25.0 20.1 -0.7 18 11.8 SW 15 19 8 10 - - 0.0
02/06:30pm 25.0 19.3 -0.6 18 11.8 SW 19 22 10 12 - - 0.0
02/06:20pm 25.3 20.4 -0.7 18 12.0 SW 15 19 8 10 - - 0.0
02/06:10pm 25.7 20.4 -0.9 17 12.2 SW 17 22 9 12 - - 0.0
02/06:00pm 25.7 19.9 -1.3 17 12.3 SW 19 20 10 11 - - 0.0
02/05:50pm 26.3 20.5 -1.2 16 12.6 WSW 19 24 10 13 - - 0.0
02/05:40pm 26.2 20.4 -1.2 16 12.6 SW 19 24 10 13 - - 0.0
02/05:30pm 26.2 21.2 -1.2 16 12.6 SW 15 20 8 11 - - 0.0
02/05:20pm 26.3 20.5 -1.5 16 12.7 SW 19 28 10 15 - - 0.0

Other formats

Comma delimited format used in spreadsheet applications
http://www.bom.gov.au/fwo/IDN60801/IDN60801.99998.axf

JavaScript Object Notation format (JSON) in row-major order
http://www.bom.gov.au/fwo/IDN60801/IDN60801.99998.json

Data quality

Most of these data are generated automatically and are frequently updated. Quality checks on data are not normally performed. It is possible for incorrect values to appear. Refer to information at About Latest Weather Observations and please check the disclaimer before using these data.